Aérodrome :
LOGIN :

S'inscrire | Disclaimer

   EN    FR    IT 

 










Légende :    VFR   VFR Marginal   IFR   IFR Intensif   IFR Très Intensif
Visi : 
Plafond : 
>= 8 km
>= 3000ft
5 à 8 km
1000 à 3000 ft
1500m à 5 km
500 à 1000 ft
800 à 1500m
200 à 500 ft
< 800m
< 200 ft
Symboles :   Orages  Brouillard  Fortes neiges  Fortes précipitations  Vent > 20 kt
SIGMETs :   Divers  Orages  Givrage  Turbulence  Onde Orograph.  Cendres Volcan.







- Altitude de l'aérodrome : 289 ft


LIRG - Guidonia

DERNIER METAR :
  • 211755Z 19004KT 9999 FEW030 SCT040 18/12 Q1016

METARs EXPIRÉS :
  • 211655Z 19003KT 9999 FEW030 SCT040 18/12 Q1016
  • 211555Z 19003KT 9999 FEW025 BKN030 18/12 Q1016

TAF TAF LIRG
Valide du 21 à 15h jusqu'au 22 à 00h UTC


211400Z 2115/2124 20010KT 9999 FEW030 SCT050
TEMPO 2115/2119 FEW020CB BKN030
PROB30
TEMPO 2115/2117 TSRA
BECMG 2122/2124 VRB03KT 5000 BR SCT008
Pas de NOTAMs connus pour ce terrain.
1 SIGMET publié pour la FIR Roma (LIRR) :
 
Turbulence forte
LIRR SIGMET 5 VALID 211630/212030 LIIB
LIRR ROMA FIR SEV TURB FCST WI N3749 E01126 - N3944 E01120 - N4128 E01423 - N4112 E01507 - N4006 E01546 - N3749 E01126 FL270/380 STNR NC=



MET'MAP, la Météo Aéronautique d'un coup d'oeil ! - Copyright ORBIFLY Décembre 2007 - Disclaimer

ORBIFLY MET'MAP TEAM :

Programmation & Développement : Alexandra Zaïnal
Conception & Développement : Baudouin d'Aumeries
Co-Programmation & Développement : Marc-Olivier Méhu
Soutien technique & logistique : Manuel Goepfert

Contact : metmap@orbifly.com




SOURCES & CREDITS :

   NOAA